createdAt,value
2023-05-15T00:01:43.788Z,7.93
2023-05-15T00:04:45.917Z,7.63
2023-05-15T00:07:47.870Z,8.87
2023-05-15T00:11:00.705Z,7.97
2023-05-15T00:14:03.715Z,8.43
2023-05-15T00:17:06.261Z,7.57
2023-05-15T00:20:10.174Z,8.57
2023-05-15T00:23:12.010Z,8.87
2023-05-15T00:26:15.898Z,8.88
2023-05-15T00:29:17.809Z,8.32
2023-05-15T00:32:19.555Z,8.02
2023-05-15T00:35:21.368Z,8.67
2023-05-15T00:38:23.211Z,8.30
2023-05-15T00:41:25.319Z,8.10
2023-05-15T00:44:27.201Z,8.82
2023-05-15T00:47:29.289Z,8.35
2023-05-15T00:50:31.433Z,8.50
2023-05-15T00:53:33.353Z,8.30
2023-05-15T00:56:35.243Z,8.32
2023-05-15T00:59:37.029Z,8.43
2023-05-15T01:02:38.955Z,8.07
2023-05-15T01:05:40.864Z,7.70
2023-05-15T01:08:44.224Z,7.77
2023-05-15T01:11:46.041Z,8.35
2023-05-15T01:14:47.906Z,8.50
2023-05-15T01:17:50.888Z,8.60
2023-05-15T01:21:02.252Z,8.57
2023-05-15T01:24:32.568Z,8.30
2023-05-15T01:27:34.344Z,8.43
2023-05-15T01:30:37.012Z,7.85
2023-05-15T01:33:39.974Z,7.78
2023-05-15T01:36:52.911Z,7.47
2023-05-15T01:40:03.288Z,8.40
2023-05-15T01:43:09.783Z,7.97
2023-05-15T01:46:15.701Z,8.02
2023-05-15T01:49:19.226Z,8.95
2023-05-15T01:52:25.621Z,7.90
2023-05-15T01:55:27.778Z,8.23
2023-05-15T01:58:29.672Z,9.13
2023-05-15T02:01:33.012Z,9.02
2023-05-15T02:04:35.190Z,8.70
2023-05-15T02:07:37.168Z,8.57
2023-05-15T02:10:39.303Z,9.87
2023-05-15T02:13:41.540Z,10.70
2023-05-15T02:16:43.784Z,10.02
2023-05-15T02:19:45.729Z,10.63
2023-05-15T02:22:47.563Z,12.43
2023-05-15T02:26:01.512Z,17.47
2023-05-15T02:29:37.409Z,19.33
2023-05-15T02:33:32.062Z,16.27
2023-05-15T02:36:34.178Z,17.55
2023-05-15T02:39:35.978Z,21.53
2023-05-15T02:42:37.760Z,24.63
2023-05-15T02:45:40.055Z,31.75
2023-05-15T02:48:42.185Z,33.72
2023-05-15T02:51:44.035Z,32.45
2023-05-15T02:54:48.648Z,25.23
2023-05-15T02:57:50.460Z,17.07
2023-05-15T03:00:52.361Z,16.23
2023-05-15T03:03:54.500Z,10.25
2023-05-15T03:06:56.311Z,7.95
2023-05-15T03:09:58.126Z,8.00
2023-05-15T03:13:00.162Z,7.50
2023-05-15T03:16:01.962Z,7.60
2023-05-15T03:19:04.102Z,7.90
2023-05-15T03:22:05.977Z,7.15
2023-05-15T03:25:11.624Z,7.43
2023-05-15T03:28:13.474Z,8.13
2023-05-15T03:31:15.406Z,7.47
2023-05-15T03:34:17.240Z,8.27
2023-05-15T03:37:19.128Z,7.72
2023-05-15T03:40:21.331Z,11.93
2023-05-15T03:43:23.149Z,11.87
2023-05-15T03:46:24.990Z,15.23
2023-05-15T03:49:26.833Z,14.50
2023-05-15T03:52:28.792Z,11.05
2023-05-15T03:55:30.616Z,10.70
2023-05-15T03:58:32.511Z,9.53
2023-05-15T04:01:39.314Z,8.82
2023-05-15T04:04:49.324Z,9.15
2023-05-15T04:07:51.185Z,9.40
2023-05-15T04:10:53.321Z,9.70
2023-05-15T04:13:55.078Z,10.57
2023-05-15T04:16:56.905Z,11.40
2023-05-15T04:19:58.660Z,9.48
2023-05-15T04:23:00.780Z,8.30
2023-05-15T04:26:02.766Z,7.13
2023-05-15T04:29:04.997Z,5.77
2023-05-15T04:32:07.371Z,6.00
2023-05-15T04:35:10.652Z,5.80
2023-05-15T04:38:12.534Z,7.13
2023-05-15T04:41:14.316Z,6.87
2023-05-15T04:44:16.143Z,6.47
2023-05-15T04:47:18.208Z,6.28
2023-05-15T04:50:20.181Z,5.90
2023-05-15T04:53:22.108Z,6.53
2023-05-15T04:56:23.953Z,6.57
2023-05-15T04:59:25.852Z,6.47
2023-05-15T05:02:27.858Z,6.97
2023-05-15T05:05:29.758Z,6.70
2023-05-15T05:08:31.651Z,6.50
2023-05-15T05:11:33.548Z,6.57
2023-05-15T05:14:35.426Z,5.87
2023-05-15T05:17:37.266Z,6.05
2023-05-15T05:20:39.285Z,6.80
2023-05-15T05:23:41.118Z,9.80
2023-05-15T05:26:46.088Z,7.13
2023-05-15T05:29:47.959Z,6.33
2023-05-15T05:32:49.968Z,7.03
2023-05-15T05:35:52.149Z,6.90
2023-05-15T05:38:54.061Z,6.65
2023-05-15T05:42:00.046Z,6.57
2023-05-15T05:45:02.020Z,6.90
2023-05-15T05:48:04.065Z,6.80
2023-05-15T05:51:06.078Z,6.55
2023-05-15T05:54:08.006Z,6.90
2023-05-15T05:57:09.931Z,6.83
2023-05-15T06:00:12.900Z,6.53
2023-05-15T06:03:18.084Z,6.55
2023-05-15T06:06:19.917Z,6.82
2023-05-15T06:09:21.756Z,5.78
2023-05-15T06:12:28.125Z,6.20
2023-05-15T06:15:30.042Z,6.63
2023-05-15T06:18:31.925Z,6.65
2023-05-15T06:21:34.334Z,6.53
2023-05-15T06:24:36.222Z,6.38
2023-05-15T06:27:38.082Z,5.97
2023-05-15T06:30:40.031Z,6.27
2023-05-15T06:33:41.926Z,6.22
2023-05-15T06:36:43.871Z,5.90
2023-05-15T06:39:48.614Z,6.13
2023-05-15T06:42:50.796Z,6.27
2023-05-15T06:45:52.626Z,5.27
2023-05-15T06:48:57.589Z,5.75
2023-05-15T06:51:59.449Z,5.40
2023-05-15T06:55:01.513Z,5.38
2023-05-15T06:58:03.431Z,5.87
2023-05-15T07:01:06.795Z,4.80
2023-05-15T07:04:08.911Z,4.07
2023-05-15T07:07:10.892Z,4.72
2023-05-15T07:10:12.742Z,4.50
2023-05-15T07:13:14.615Z,4.27
2023-05-15T07:16:16.512Z,4.13
2023-05-15T07:19:21.186Z,4.50
2023-05-15T07:22:23.167Z,3.50
2023-05-15T07:25:26.018Z,3.60
2023-05-15T07:28:32.082Z,3.87
2023-05-15T07:31:34.059Z,8.27
2023-05-15T07:34:35.927Z,5.03
2023-05-15T07:37:38.531Z,3.88
2023-05-15T07:40:40.484Z,4.43
2023-05-15T07:43:46.101Z,3.80
2023-05-15T07:46:48.146Z,4.07
2023-05-15T07:49:49.978Z,3.72
2023-05-15T07:52:51.786Z,3.30
2023-05-15T07:55:53.760Z,3.17
2023-05-15T07:58:58.501Z,3.57
2023-05-15T08:02:00.392Z,3.40
2023-05-15T08:05:02.307Z,2.67
2023-05-15T08:08:04.230Z,2.40
2023-05-15T08:11:06.224Z,2.35
2023-05-15T08:14:08.321Z,2.10
2023-05-15T08:17:10.232Z,2.60
2023-05-15T08:20:12.625Z,2.30
2023-05-15T08:23:14.520Z,2.45
2023-05-15T08:26:16.381Z,2.25
2023-05-15T08:29:18.228Z,2.63
2023-05-15T08:32:20.446Z,2.33
2023-05-15T08:35:22.350Z,2.40
2023-05-15T08:38:24.463Z,2.00
2023-05-15T08:41:40.422Z,2.30
2023-05-15T08:44:46.061Z,2.10
2023-05-15T08:47:48.065Z,3.60
2023-05-15T08:50:50.083Z,2.10
2023-05-15T08:53:52.041Z,1.90
2023-05-15T08:56:54.072Z,1.63
2023-05-15T09:00:00.994Z,1.20
2023-05-15T09:03:03.305Z,1.20
2023-05-15T09:06:05.695Z,1.20
2023-05-15T09:09:07.653Z,1.50
2023-05-15T09:12:13.299Z,1.23
2023-05-15T09:15:22.678Z,1.20
2023-05-15T09:18:24.975Z,1.50
2023-05-15T09:21:30.862Z,1.50
2023-05-15T09:24:38.683Z,1.40
2023-05-15T09:27:43.727Z,1.60
2023-05-15T09:30:45.586Z,1.50
2023-05-15T09:33:47.483Z,4.50
2023-05-15T09:36:49.471Z,1.63
2023-05-15T09:39:51.446Z,2.58
2023-05-15T09:42:56.292Z,1.70
2023-05-15T09:45:58.406Z,2.20
2023-05-15T09:49:00.342Z,2.80
2023-05-15T09:52:02.098Z,1.33
2023-05-15T09:55:04.432Z,1.58
2023-05-15T09:58:18.772Z,1.50
2023-05-15T10:01:21.741Z,1.50
2023-05-15T10:04:23.632Z,1.47
2023-05-15T10:07:43.411Z,1.58
2023-05-15T10:10:46.988Z,1.75
2023-05-15T10:13:48.955Z,1.20
2023-05-15T10:16:51.450Z,1.40
2023-05-15T10:19:58.370Z,1.60
2023-05-15T10:23:00.952Z,1.30
2023-05-15T10:26:04.643Z,1.35
2023-05-15T10:29:08.535Z,1.30
2023-05-15T10:32:10.479Z,1.50
2023-05-15T10:35:12.430Z,1.40
2023-05-15T10:38:14.439Z,1.20
2023-05-15T10:41:18.223Z,1.27
2023-05-15T10:44:20.503Z,1.10
2023-05-15T10:47:22.571Z,1.40
2023-05-15T10:50:24.795Z,2.90
2023-05-15T10:53:26.766Z,1.85
2023-05-15T10:56:35.591Z,1.23
2023-05-15T10:59:42.616Z,1.20
2023-05-15T11:02:44.627Z,1.07
2023-05-15T11:06:10.071Z,1.10
2023-05-15T11:09:38.695Z,1.23
2023-05-15T11:13:10.057Z,1.80
2023-05-15T11:16:13.517Z,1.90
2023-05-15T11:19:25.604Z,1.77
2023-05-15T11:22:36.305Z,1.23
2023-05-15T11:25:38.675Z,1.40
2023-05-15T11:28:44.216Z,2.28
2023-05-15T11:31:46.028Z,1.85
2023-05-15T11:34:48.019Z,1.60
2023-05-15T11:38:00.523Z,13.57
2023-05-15T11:41:05.693Z,25.00
2023-05-15T11:44:08.101Z,12.05
2023-05-15T11:47:11.146Z,6.70
2023-05-15T11:50:12.953Z,2.33
2023-05-15T11:53:15.116Z,2.57
2023-05-15T11:56:24.782Z,2.85
2023-05-15T11:59:27.094Z,2.85
2023-05-15T12:02:29.386Z,1.48
2023-05-15T12:05:32.107Z,1.20
2023-05-15T12:08:35.264Z,1.00
2023-05-15T12:11:37.277Z,0.98
2023-05-15T12:14:39.720Z,1.30
2023-05-15T12:17:41.883Z,0.88
2023-05-15T12:20:47.137Z,1.30
2023-05-15T12:24:06.330Z,1.83
2023-05-15T12:27:09.414Z,4.18
2023-05-15T12:30:11.671Z,1.00
2023-05-15T12:33:13.628Z,1.58
2023-05-15T12:36:15.737Z,1.30
2023-05-15T12:39:17.773Z,0.93
2023-05-15T12:42:19.829Z,27.35
2023-05-15T12:45:22.436Z,14.52
2023-05-15T12:48:32.766Z,4.82
2023-05-15T12:51:34.661Z,2.00
2023-05-15T12:54:41.181Z,1.50
2023-05-15T12:57:43.161Z,7.95
2023-05-15T13:00:46.910Z,2.97
2023-05-15T13:03:48.870Z,1.48
2023-05-15T13:06:51.027Z,1.57
2023-05-15T13:10:08.584Z,1.60
2023-05-15T13:13:10.718Z,5.85
2023-05-15T13:16:19.729Z,2.45
2023-05-15T13:19:21.610Z,1.50
2023-05-15T13:22:23.539Z,13.43
2023-05-15T13:25:25.907Z,5.33
2023-05-15T13:28:27.792Z,1.60
2023-05-15T13:31:29.944Z,1.08
2023-05-15T13:34:35.177Z,1.38
2023-05-15T13:37:37.628Z,2.30
2023-05-15T13:40:39.676Z,0.80
2023-05-15T13:43:41.474Z,0.90
2023-05-15T13:46:44.143Z,0.90
2023-05-15T13:49:46.397Z,0.80
2023-05-15T13:52:48.422Z,1.20
2023-05-15T13:55:51.813Z,0.97
2023-05-15T13:58:55.123Z,1.02
2023-05-15T14:01:56.979Z,1.10
2023-05-15T14:05:03.325Z,0.90
2023-05-15T14:08:05.533Z,0.93
2023-05-15T14:11:07.579Z,1.13
2023-05-15T14:14:09.364Z,1.10
2023-05-15T14:17:11.211Z,1.10
2023-05-15T14:20:13.157Z,1.00
2023-05-15T14:23:15.714Z,0.90
2023-05-15T14:26:17.482Z,1.10
2023-05-15T14:29:19.287Z,1.20
2023-05-15T14:32:21.215Z,0.98
2023-05-15T14:35:23.226Z,0.80
2023-05-15T14:38:24.979Z,0.90
2023-05-15T14:41:28.103Z,0.80
2023-05-15T14:44:29.940Z,0.90
2023-05-15T14:47:32.040Z,0.68
2023-05-15T14:50:33.890Z,0.95
2023-05-15T14:53:35.790Z,1.00
2023-05-15T14:56:37.571Z,0.70
2023-05-15T14:59:39.515Z,1.02
2023-05-15T15:02:41.667Z,1.00
2023-05-15T15:05:43.523Z,3.30
2023-05-15T15:08:45.396Z,1.10
2023-05-15T15:11:47.530Z,0.80
2023-05-15T15:14:49.352Z,0.68
2023-05-15T15:17:51.955Z,0.90
2023-05-15T15:20:53.768Z,0.70
2023-05-15T15:23:56.545Z,1.20
2023-05-15T15:26:58.330Z,0.90
2023-05-15T15:30:00.219Z,0.80
2023-05-15T15:33:02.255Z,0.80
2023-05-15T15:36:04.428Z,1.02
2023-05-15T15:39:06.442Z,1.13
2023-05-15T15:42:08.310Z,1.10
2023-05-15T15:45:10.218Z,0.80
2023-05-15T15:48:12.135Z,0.90
2023-05-15T15:51:14.192Z,1.30
2023-05-15T15:54:16.217Z,1.20
2023-05-15T15:57:18.299Z,1.00
2023-05-15T16:00:20.373Z,1.00
2023-05-15T16:03:22.291Z,0.93
2023-05-15T16:06:24.258Z,0.75
2023-05-15T16:09:26.049Z,1.23
2023-05-15T16:12:28.170Z,0.90
2023-05-15T16:15:29.978Z,0.82
2023-05-15T16:18:31.971Z,0.93
2023-05-15T16:21:36.403Z,1.15
2023-05-15T16:24:38.425Z,1.40
2023-05-15T16:27:40.307Z,1.30
2023-05-15T16:30:48.959Z,1.10
2023-05-15T16:33:52.322Z,1.15
2023-05-15T16:36:54.215Z,1.20
2023-05-15T16:39:56.030Z,1.50
2023-05-15T16:42:58.104Z,1.50
2023-05-15T16:46:00.099Z,1.40
2023-05-15T16:49:02.007Z,1.80
2023-05-15T16:52:04.118Z,1.35
2023-05-15T16:55:06.668Z,1.70
2023-05-15T16:58:08.925Z,1.50
2023-05-15T17:01:10.847Z,1.70
2023-05-15T17:04:12.809Z,1.67
2023-05-15T17:07:14.783Z,1.77
2023-05-15T17:10:16.750Z,2.27
2023-05-15T17:13:18.613Z,1.70
2023-05-15T17:16:20.400Z,1.65
2023-05-15T17:19:22.376Z,1.60
2023-05-15T17:22:24.327Z,1.60
2023-05-15T17:25:26.375Z,1.77
2023-05-15T17:28:28.404Z,1.50
2023-05-15T17:31:30.447Z,1.42
2023-05-15T17:34:32.317Z,1.58
2023-05-15T17:37:34.219Z,5.25
2023-05-15T17:40:36.039Z,2.07
2023-05-15T17:43:38.100Z,1.60
2023-05-15T17:46:39.949Z,1.67
2023-05-15T17:49:41.900Z,1.70
2023-05-15T17:52:43.769Z,1.75
2023-05-15T17:55:45.861Z,1.90
2023-05-15T17:58:47.721Z,1.93
2023-05-15T18:01:49.692Z,1.95
2023-05-15T18:04:51.636Z,1.90
2023-05-15T18:07:56.369Z,1.95
2023-05-15T18:10:58.178Z,1.80
2023-05-15T18:14:00.066Z,4.40
2023-05-15T18:17:01.896Z,3.13
2023-05-15T18:20:05.811Z,2.42
2023-05-15T18:23:07.717Z,1.77
2023-05-15T18:26:10.425Z,1.83
2023-05-15T18:29:12.789Z,1.63
2023-05-15T18:32:14.699Z,2.40
2023-05-15T18:35:17.344Z,2.20
2023-05-15T18:38:19.157Z,2.80
2023-05-15T18:41:21.540Z,3.57
2023-05-15T18:44:23.490Z,3.20
2023-05-15T18:47:25.567Z,3.67
2023-05-15T18:50:27.428Z,3.35
2023-05-15T18:53:29.273Z,3.90
2023-05-15T18:56:31.488Z,3.60
2023-05-15T18:59:33.477Z,4.00
2023-05-15T19:02:36.391Z,3.53
2023-05-15T19:05:38.269Z,3.70
2023-05-15T19:08:43.142Z,3.28
2023-05-15T19:11:46.897Z,2.90
2023-05-15T19:14:48.776Z,3.70
2023-05-15T19:17:50.910Z,4.30
2023-05-15T19:20:54.354Z,4.32
2023-05-15T19:23:56.227Z,3.75
2023-05-15T19:26:58.091Z,3.73
2023-05-15T19:29:59.937Z,3.33
2023-05-15T19:33:01.778Z,3.58
2023-05-15T19:36:03.806Z,3.28
2023-05-15T19:39:05.563Z,3.70
2023-05-15T19:42:07.435Z,3.83
2023-05-15T19:45:09.707Z,4.23
2023-05-15T19:48:11.967Z,4.07
2023-05-15T19:51:13.935Z,4.35
2023-05-15T19:54:16.786Z,4.30
2023-05-15T19:57:18.544Z,4.33
2023-05-15T20:00:20.624Z,4.53
2023-05-15T20:03:22.681Z,4.82
2023-05-15T20:06:24.760Z,4.35
2023-05-15T20:09:26.625Z,4.43
2023-05-15T20:12:28.467Z,4.23
2023-05-15T20:15:31.786Z,3.50
2023-05-15T20:18:34.919Z,3.55
2023-05-15T20:21:37.663Z,3.85
2023-05-15T20:24:40.174Z,4.30
2023-05-15T20:27:45.364Z,3.70
2023-05-15T20:30:47.592Z,4.00
2023-05-15T20:33:49.321Z,3.70
2023-05-15T20:36:54.615Z,4.15
2023-05-15T20:39:57.291Z,4.40
2023-05-15T20:42:59.548Z,4.53
2023-05-15T20:46:01.382Z,4.63
2023-05-15T20:49:03.142Z,5.25
2023-05-15T20:52:05.171Z,6.05
2023-05-15T20:55:15.988Z,4.45
2023-05-15T20:58:17.795Z,4.23
2023-05-15T21:01:19.710Z,4.23
2023-05-15T21:04:21.575Z,4.47
2023-05-15T21:07:23.385Z,4.15
2023-05-15T21:10:25.880Z,4.10
2023-05-15T21:13:28.259Z,5.73
2023-05-15T21:16:30.089Z,6.57
2023-05-15T21:19:32.085Z,7.43
2023-05-15T21:22:34.402Z,6.60
2023-05-15T21:25:37.013Z,6.65
2023-05-15T21:28:38.811Z,4.57
2023-05-15T21:31:40.713Z,4.80
2023-05-15T21:34:42.878Z,4.45
2023-05-15T21:37:44.717Z,4.97
2023-05-15T21:40:46.565Z,4.55
2023-05-15T21:43:48.344Z,5.30
2023-05-15T21:46:50.996Z,7.60
2023-05-15T21:49:52.929Z,7.95
2023-05-15T21:52:54.780Z,8.63
2023-05-15T21:56:00.425Z,7.53
2023-05-15T21:59:02.795Z,5.73
2023-05-15T22:02:04.917Z,4.50
2023-05-15T22:05:07.040Z,4.63
2023-05-15T22:08:08.926Z,4.38
2023-05-15T22:11:10.700Z,3.90
2023-05-15T22:14:12.723Z,4.43
2023-05-15T22:17:14.508Z,3.40
2023-05-15T22:20:19.178Z,3.85
2023-05-15T22:23:21.146Z,3.75
2023-05-15T22:26:23.439Z,3.75
2023-05-15T22:29:25.299Z,3.43
2023-05-15T22:32:27.265Z,3.77
2023-05-15T22:35:29.503Z,3.45
2023-05-15T22:38:31.614Z,3.42
2023-05-15T22:41:33.340Z,3.67
2023-05-15T22:44:35.121Z,4.03
2023-05-15T22:47:36.985Z,3.50
2023-05-15T22:50:38.874Z,3.97
2023-05-15T22:53:41.453Z,4.15
2023-05-15T22:56:43.233Z,3.78
2023-05-15T22:59:45.086Z,3.40
2023-05-15T23:02:46.921Z,3.33
2023-05-15T23:05:48.830Z,3.45
2023-05-15T23:08:51.450Z,3.65
2023-05-15T23:11:53.526Z,3.40
2023-05-15T23:14:55.308Z,3.20
2023-05-15T23:17:57.817Z,2.70
2023-05-15T23:20:59.670Z,3.25
2023-05-15T23:24:10.612Z,3.67
2023-05-15T23:27:13.133Z,3.70
2023-05-15T23:30:15.433Z,3.93
2023-05-15T23:33:17.402Z,3.80
2023-05-15T23:36:19.158Z,3.95
2023-05-15T23:39:21.027Z,3.70
2023-05-15T23:42:23.380Z,3.47
2023-05-15T23:45:25.146Z,3.53
2023-05-15T23:48:27.086Z,3.57
2023-05-15T23:51:28.925Z,4.20
2023-05-15T23:54:31.174Z,3.90
2023-05-15T23:57:32.888Z,3.47
